sensor_id;sensor_type;location;lat;lon;timestamp;temperature;humidity
66032;DHT22;52799;45.654;13.810;2022-09-09T00:00:32;22.10;90.20
66032;DHT22;52799;45.654;13.810;2022-09-09T00:05:29;22.10;90.10
66032;DHT22;52799;45.654;13.810;2022-09-09T00:07:58;22.10;90.10
66032;DHT22;52799;45.654;13.810;2022-09-09T00:15:26;22.20;89.20
66032;DHT22;52799;45.654;13.810;2022-09-09T00:17:56;22.20;89.30
66032;DHT22;52799;45.654;13.810;2022-09-09T00:20:36;22.20;88.50
66032;DHT22;52799;45.654;13.810;2022-09-09T00:25:34;22.20;88.40
66032;DHT22;52799;45.654;13.810;2022-09-09T00:28:02;22.20;88.30
66032;DHT22;52799;45.654;13.810;2022-09-09T00:30:31;22.20;88.10
66032;DHT22;52799;45.654;13.810;2022-09-09T00:33:01;22.20;87.90
66032;DHT22;52799;45.654;13.810;2022-09-09T00:35:35;22.20;88.10
66032;DHT22;52799;45.654;13.810;2022-09-09T00:38:04;22.10;88.30
66032;DHT22;52799;45.654;13.810;2022-09-09T00:40:35;22.10;88.40
66032;DHT22;52799;45.654;13.810;2022-09-09T00:46:05;22.10;88.00
66032;DHT22;52799;45.654;13.810;2022-09-09T00:48:38;22.20;87.90
66032;DHT22;52799;45.654;13.810;2022-09-09T00:51:09;22.20;87.40
66032;DHT22;52799;45.654;13.810;2022-09-09T00:56:17;22.20;87.10
66032;DHT22;52799;45.654;13.810;2022-09-09T00:58:49;22.40;86.50
66032;DHT22;52799;45.654;13.810;2022-09-09T01:01:19;22.40;86.30
66032;DHT22;52799;45.654;13.810;2022-09-09T01:03:46;22.40;86.30
66032;DHT22;52799;45.654;13.810;2022-09-09T01:14:10;22.30;86.90
66032;DHT22;52799;45.654;13.810;2022-09-09T01:16:37;22.30;86.50
66032;DHT22;52799;45.654;13.810;2022-09-09T01:19:03;22.30;86.80
66032;DHT22;52799;45.654;13.810;2022-09-09T01:21:50;22.30;86.70
66032;DHT22;52799;45.654;13.810;2022-09-09T01:26:45;22.20;86.80
66032;DHT22;52799;45.654;13.810;2022-09-09T01:29:12;22.20;86.90
66032;DHT22;52799;45.654;13.810;2022-09-09T01:31:39;22.20;86.80
66032;DHT22;52799;45.654;13.810;2022-09-09T01:34:10;22.20;86.90
66032;DHT22;52799;45.654;13.810;2022-09-09T01:39:08;22.10;87.40
66032;DHT22;52799;45.654;13.810;2022-09-09T01:41:33;22.10;87.80
66032;DHT22;52799;45.654;13.810;2022-09-09T01:43:59;22.10;87.60
66032;DHT22;52799;45.654;13.810;2022-09-09T01:46:24;22.10;88.00
66032;DHT22;52799;45.654;13.810;2022-09-09T01:48:51;22.10;88.20
66032;DHT22;52799;45.654;13.810;2022-09-09T01:51:17;22.10;88.50
66032;DHT22;52799;45.654;13.810;2022-09-09T01:53:43;22.10;88.70
66032;DHT22;52799;45.654;13.810;2022-09-09T01:56:29;22.10;88.90
66032;DHT22;52799;45.654;13.810;2022-09-09T02:01:44;22.20;89.70
66032;DHT22;52799;45.654;13.810;2022-09-09T02:06:57;22.20;89.90
66032;DHT22;52799;45.654;13.810;2022-09-09T02:09:23;22.20;89.60
66032;DHT22;52799;45.654;13.810;2022-09-09T02:11:49;22.20;89.80
66032;DHT22;52799;45.654;13.810;2022-09-09T02:14:18;22.20;89.80
66032;DHT22;52799;45.654;13.810;2022-09-09T02:16:50;22.10;90.10
66032;DHT22;52799;45.654;13.810;2022-09-09T02:19:19;22.10;90.00
66032;DHT22;52799;45.654;13.810;2022-09-09T02:21:51;22.10;90.00
66032;DHT22;52799;45.654;13.810;2022-09-09T02:24:18;22.10;89.00
66032;DHT22;52799;45.654;13.810;2022-09-09T02:26:44;22.10;88.50
66032;DHT22;52799;45.654;13.810;2022-09-09T02:29:13;22.10;88.00
66032;DHT22;52799;45.654;13.810;2022-09-09T02:31:39;22.10;88.10
66032;DHT22;52799;45.654;13.810;2022-09-09T02:34:06;22.00;87.40
66032;DHT22;52799;45.654;13.810;2022-09-09T02:36:36;22.00;86.60
66032;DHT22;52799;45.654;13.810;2022-09-09T02:39:02;22.10;85.90
66032;DHT22;52799;45.654;13.810;2022-09-09T02:41:33;22.10;85.20
66032;DHT22;52799;45.654;13.810;2022-09-09T02:43:59;22.10;84.80
66032;DHT22;52799;45.654;13.810;2022-09-09T02:49:06;22.10;84.60
66032;DHT22;52799;45.654;13.810;2022-09-09T02:51:45;22.10;84.80
66032;DHT22;52799;45.654;13.810;2022-09-09T02:54:20;22.10;84.80
66032;DHT22;52799;45.654;13.810;2022-09-09T02:56:51;22.10;84.50
66032;DHT22;52799;45.654;13.810;2022-09-09T02:59:20;22.20;84.30
66032;DHT22;52799;45.654;13.810;2022-09-09T03:01:46;22.10;84.50
66032;DHT22;52799;45.654;13.810;2022-09-09T03:04:12;22.10;84.10
66032;DHT22;52799;45.654;13.810;2022-09-09T03:06:38;22.10;84.10
66032;DHT22;52799;45.654;13.810;2022-09-09T03:09:04;22.10;84.00
66032;DHT22;52799;45.654;13.810;2022-09-09T03:11:29;22.10;83.70
66032;DHT22;52799;45.654;13.810;2022-09-09T03:13:55;22.10;83.90
66032;DHT22;52799;45.654;13.810;2022-09-09T03:16:23;22.00;84.00
66032;DHT22;52799;45.654;13.810;2022-09-09T03:18:49;22.00;84.40
66032;DHT22;52799;45.654;13.810;2022-09-09T03:21:14;21.90;84.80
66032;DHT22;52799;45.654;13.810;2022-09-09T03:23:40;21.80;85.40
66032;DHT22;52799;45.654;13.810;2022-09-09T03:26:06;21.80;85.50
66032;DHT22;52799;45.654;13.810;2022-09-09T03:28:32;21.80;85.80
66032;DHT22;52799;45.654;13.810;2022-09-09T03:30:58;21.80;85.60
66032;DHT22;52799;45.654;13.810;2022-09-09T03:33:24;21.70;86.00
66032;DHT22;52799;45.654;13.810;2022-09-09T03:35:49;21.60;86.20
66032;DHT22;52799;45.654;13.810;2022-09-09T03:38:16;21.60;86.60
66032;DHT22;52799;45.654;13.810;2022-09-09T03:40:48;21.60;86.00
66032;DHT22;52799;45.654;13.810;2022-09-09T03:43:14;21.70;85.60
66032;DHT22;52799;45.654;13.810;2022-09-09T03:45:45;21.70;85.70
66032;DHT22;52799;45.654;13.810;2022-09-09T03:48:11;21.60;86.20
66032;DHT22;52799;45.654;13.810;2022-09-09T03:50:37;21.70;86.20
66032;DHT22;52799;45.654;13.810;2022-09-09T03:53:02;21.60;86.20
66032;DHT22;52799;45.654;13.810;2022-09-09T03:55:28;21.60;86.30
66032;DHT22;52799;45.654;13.810;2022-09-09T03:57:53;21.60;86.70
66032;DHT22;52799;45.654;13.810;2022-09-09T04:00:19;21.60;86.50
66032;DHT22;52799;45.654;13.810;2022-09-09T04:02:44;21.60;86.60
66032;DHT22;52799;45.654;13.810;2022-09-09T04:05:11;21.50;87.50
66032;DHT22;52799;45.654;13.810;2022-09-09T04:07:36;21.50;86.80
66032;DHT22;52799;45.654;13.810;2022-09-09T04:10:02;21.50;86.70
66032;DHT22;52799;45.654;13.810;2022-09-09T04:12:27;21.60;86.20
66032;DHT22;52799;45.654;13.810;2022-09-09T04:14:53;21.50;86.20
66032;DHT22;52799;45.654;13.810;2022-09-09T04:17:18;21.60;85.90
66032;DHT22;52799;45.654;13.810;2022-09-09T04:19:44;21.60;86.10
66032;DHT22;52799;45.654;13.810;2022-09-09T04:22:10;21.60;86.40
66032;DHT22;52799;45.654;13.810;2022-09-09T04:24:36;21.60;86.40
66032;DHT22;52799;45.654;13.810;2022-09-09T04:27:01;21.60;85.90
66032;DHT22;52799;45.654;13.810;2022-09-09T04:29:27;21.70;85.50
66032;DHT22;52799;45.654;13.810;2022-09-09T04:31:53;21.70;85.60
66032;DHT22;52799;45.654;13.810;2022-09-09T04:34:18;21.80;85.00
66032;DHT22;52799;45.654;13.810;2022-09-09T04:36:44;21.70;84.70
66032;DHT22;52799;45.654;13.810;2022-09-09T04:39:09;21.80;85.00
66032;DHT22;52799;45.654;13.810;2022-09-09T04:41:35;21.70;84.60
66032;DHT22;52799;45.654;13.810;2022-09-09T04:44:00;21.70;84.80
66032;DHT22;52799;45.654;13.810;2022-09-09T04:46:26;21.70;85.10
66032;DHT22;52799;45.654;13.810;2022-09-09T04:48:52;21.80;84.80
66032;DHT22;52799;45.654;13.810;2022-09-09T04:51:18;21.70;84.10
66032;DHT22;52799;45.654;13.810;2022-09-09T04:53:44;21.80;83.90
66032;DHT22;52799;45.654;13.810;2022-09-09T04:56:11;21.80;83.90
66032;DHT22;52799;45.654;13.810;2022-09-09T04:58:37;21.80;83.80
66032;DHT22;52799;45.654;13.810;2022-09-09T05:01:04;21.90;84.30
66032;DHT22;52799;45.654;13.810;2022-09-09T05:03:29;21.80;83.40
66032;DHT22;52799;45.654;13.810;2022-09-09T05:06:01;21.90;82.90
66032;DHT22;52799;45.654;13.810;2022-09-09T05:08:29;21.90;83.20
66032;DHT22;52799;45.654;13.810;2022-09-09T05:10:54;21.90;82.90
66032;DHT22;52799;45.654;13.810;2022-09-09T05:13:20;21.90;82.30
66032;DHT22;52799;45.654;13.810;2022-09-09T05:15:52;21.90;82.60
66032;DHT22;52799;45.654;13.810;2022-09-09T05:18:18;21.80;82.90
66032;DHT22;52799;45.654;13.810;2022-09-09T05:20:44;21.80;83.20
66032;DHT22;52799;45.654;13.810;2022-09-09T05:23:09;21.80;83.30
66032;DHT22;52799;45.654;13.810;2022-09-09T05:25:37;21.80;83.00
66032;DHT22;52799;45.654;13.810;2022-09-09T05:28:03;21.90;82.80
66032;DHT22;52799;45.654;13.810;2022-09-09T05:30:28;22.00;82.50
66032;DHT22;52799;45.654;13.810;2022-09-09T05:32:56;22.00;82.00
66032;DHT22;52799;45.654;13.810;2022-09-09T05:35:22;21.90;82.30
66032;DHT22;52799;45.654;13.810;2022-09-09T05:37:48;21.90;82.70
66032;DHT22;52799;45.654;13.810;2022-09-09T05:40:14;21.90;82.80
66032;DHT22;52799;45.654;13.810;2022-09-09T05:42:40;21.90;82.00
66032;DHT22;52799;45.654;13.810;2022-09-09T05:45:06;21.90;82.60
66032;DHT22;52799;45.654;13.810;2022-09-09T05:47:33;21.90;82.20
66032;DHT22;52799;45.654;13.810;2022-09-09T05:49:58;21.90;81.70
66032;DHT22;52799;45.654;13.810;2022-09-09T05:52:24;21.90;81.70
66032;DHT22;52799;45.654;13.810;2022-09-09T05:54:51;22.00;81.60
66032;DHT22;52799;45.654;13.810;2022-09-09T05:57:17;22.00;81.40
66032;DHT22;52799;45.654;13.810;2022-09-09T05:59:44;22.10;81.80
66032;DHT22;52799;45.654;13.810;2022-09-09T06:02:10;22.00;82.30
66032;DHT22;52799;45.654;13.810;2022-09-09T06:04:35;22.00;82.50
66032;DHT22;52799;45.654;13.810;2022-09-09T06:07:01;22.10;82.30
66032;DHT22;52799;45.654;13.810;2022-09-09T06:09:27;22.10;82.20
66032;DHT22;52799;45.654;13.810;2022-09-09T06:11:52;22.30;81.40
66032;DHT22;52799;45.654;13.810;2022-09-09T06:14:19;22.50;81.00
66032;DHT22;52799;45.654;13.810;2022-09-09T06:16:45;22.70;80.50
66032;DHT22;52799;45.654;13.810;2022-09-09T06:19:11;23.00;78.20
66032;DHT22;52799;45.654;13.810;2022-09-09T06:21:38;23.20;77.30
66032;DHT22;52799;45.654;13.810;2022-09-09T06:24:04;23.30;76.40
66032;DHT22;52799;45.654;13.810;2022-09-09T06:26:30;23.60;75.50
66032;DHT22;52799;45.654;13.810;2022-09-09T06:28:56;23.70;74.90
66032;DHT22;52799;45.654;13.810;2022-09-09T06:31:28;23.80;74.20
66032;DHT22;52799;45.654;13.810;2022-09-09T06:33:56;23.80;74.00
66032;DHT22;52799;45.654;13.810;2022-09-09T06:36:22;23.70;73.80
66032;DHT22;52799;45.654;13.810;2022-09-09T06:38:48;23.60;74.10
66032;DHT22;52799;45.654;13.810;2022-09-09T06:41:15;23.50;74.30
66032;DHT22;52799;45.654;13.810;2022-09-09T06:43:41;23.50;74.80
66032;DHT22;52799;45.654;13.810;2022-09-09T06:46:11;23.40;75.20
66032;DHT22;52799;45.654;13.810;2022-09-09T06:48:38;23.40;75.40
66032;DHT22;52799;45.654;13.810;2022-09-09T06:51:06;23.40;75.80
66032;DHT22;52799;45.654;13.810;2022-09-09T06:53:33;23.50;75.70
66032;DHT22;52799;45.654;13.810;2022-09-09T06:56:18;23.60;75.50
66032;DHT22;52799;45.654;13.810;2022-09-09T06:58:46;23.70;74.80
66032;DHT22;52799;45.654;13.810;2022-09-09T07:01:13;24.00;74.50
66032;DHT22;52799;45.654;13.810;2022-09-09T07:03:39;24.20;73.00
66032;DHT22;52799;45.654;13.810;2022-09-09T07:06:05;24.20;71.70
66032;DHT22;52799;45.654;13.810;2022-09-09T07:08:30;24.20;71.50
66032;DHT22;52799;45.654;13.810;2022-09-09T07:11:06;24.30;71.80
66032;DHT22;52799;45.654;13.810;2022-09-09T07:13:32;24.40;71.90
66032;DHT22;52799;45.654;13.810;2022-09-09T07:16:05;24.50;71.30
66032;DHT22;52799;45.654;13.810;2022-09-09T07:18:31;24.50;71.60
66032;DHT22;52799;45.654;13.810;2022-09-09T07:20:56;24.70;71.90
66032;DHT22;52799;45.654;13.810;2022-09-09T07:23:24;24.90;71.50
66032;DHT22;52799;45.654;13.810;2022-09-09T07:25:51;25.20;71.50
66032;DHT22;52799;45.654;13.810;2022-09-09T07:28:18;25.50;70.90
66032;DHT22;52799;45.654;13.810;2022-09-09T07:30:52;25.70;70.20
66032;DHT22;52799;45.654;13.810;2022-09-09T07:33:17;25.70;69.00
66032;DHT22;52799;45.654;13.810;2022-09-09T07:35:45;25.70;69.90
66032;DHT22;52799;45.654;13.810;2022-09-09T07:38:11;25.50;70.20
66032;DHT22;52799;45.654;13.810;2022-09-09T07:40:36;25.40;70.00
66032;DHT22;52799;45.654;13.810;2022-09-09T07:43:02;25.30;70.40
66032;DHT22;52799;45.654;13.810;2022-09-09T07:45:28;25.30;70.80
66032;DHT22;52799;45.654;13.810;2022-09-09T07:47:54;25.10;71.20
66032;DHT22;52799;45.654;13.810;2022-09-09T07:50:21;25.10;71.40
66032;DHT22;52799;45.654;13.810;2022-09-09T07:52:46;25.00;72.30
66032;DHT22;52799;45.654;13.810;2022-09-09T07:55:12;24.90;72.60
66032;DHT22;52799;45.654;13.810;2022-09-09T07:57:37;25.20;72.30
66032;DHT22;52799;45.654;13.810;2022-09-09T08:00:03;25.40;72.60
66032;DHT22;52799;45.654;13.810;2022-09-09T08:02:29;25.70;71.00
66032;DHT22;52799;45.654;13.810;2022-09-09T08:04:55;25.90;70.70
66032;DHT22;52799;45.654;13.810;2022-09-09T08:07:21;25.90;70.00
66032;DHT22;52799;45.654;13.810;2022-09-09T08:09:47;25.80;70.00
66032;DHT22;52799;45.654;13.810;2022-09-09T08:12:13;25.80;70.90
66032;DHT22;52799;45.654;13.810;2022-09-09T08:14:39;25.70;71.60
66032;DHT22;52799;45.654;13.810;2022-09-09T08:17:05;25.60;72.20
66032;DHT22;52799;45.654;13.810;2022-09-09T08:19:31;25.40;71.80
66032;DHT22;52799;45.654;13.810;2022-09-09T08:21:59;25.40;72.10
66032;DHT22;52799;45.654;13.810;2022-09-09T08:24:27;25.40;72.50
66032;DHT22;52799;45.654;13.810;2022-09-09T08:26:52;25.40;71.80
66032;DHT22;52799;45.654;13.810;2022-09-09T08:29:18;25.30;72.30
66032;DHT22;52799;45.654;13.810;2022-09-09T08:31:51;25.20;72.40
66032;DHT22;52799;45.654;13.810;2022-09-09T08:34:18;25.20;73.20
66032;DHT22;52799;45.654;13.810;2022-09-09T08:36:47;25.20;73.10
66032;DHT22;52799;45.654;13.810;2022-09-09T08:39:13;25.30;73.40
66032;DHT22;52799;45.654;13.810;2022-09-09T08:52:17;25.50;73.00
66032;DHT22;52799;45.654;13.810;2022-09-09T08:54:44;25.60;72.90
66032;DHT22;52799;45.654;13.810;2022-09-09T08:57:12;25.70;72.60
66032;DHT22;52799;45.654;13.810;2022-09-09T08:59:39;25.70;71.90
66032;DHT22;52799;45.654;13.810;2022-09-09T09:02:15;25.70;71.90
66032;DHT22;52799;45.654;13.810;2022-09-09T09:05:27;25.70;71.40
66032;DHT22;52799;45.654;13.810;2022-09-09T09:12:38;25.40;73.10
66032;DHT22;52799;45.654;13.810;2022-09-09T09:15:23;25.30;73.30
66032;DHT22;52799;45.654;13.810;2022-09-09T09:17:49;25.20;73.20
66032;DHT22;52799;45.654;13.810;2022-09-09T09:20:16;25.10;73.20
66032;DHT22;52799;45.654;13.810;2022-09-09T09:22:50;25.00;73.80
66032;DHT22;52799;45.654;13.810;2022-09-09T09:25:23;25.10;73.10
66032;DHT22;52799;45.654;13.810;2022-09-09T09:27:58;25.00;73.80
66032;DHT22;52799;45.654;13.810;2022-09-09T09:30:29;24.90;75.70
66032;DHT22;52799;45.654;13.810;2022-09-09T09:32:59;24.90;76.10
66032;DHT22;52799;45.654;13.810;2022-09-09T09:35:25;24.80;77.20
66032;DHT22;52799;45.654;13.810;2022-09-09T09:37:50;24.50;80.20
66032;DHT22;52799;45.654;13.810;2022-09-09T09:40:19;24.40;81.50
66032;DHT22;52799;45.654;13.810;2022-09-09T09:42:49;24.00;82.90
66032;DHT22;52799;45.654;13.810;2022-09-09T09:46:01;23.00;79.30
66032;DHT22;52799;45.654;13.810;2022-09-09T09:48:06;22.50;81.90
66032;DHT22;52799;45.654;13.810;2022-09-09T09:50:33;20.90;82.90
66032;DHT22;52799;45.654;13.810;2022-09-09T09:53:03;20.10;88.40
66032;DHT22;52799;45.654;13.810;2022-09-09T09:55:30;19.60;90.50
66032;DHT22;52799;45.654;13.810;2022-09-09T09:58:05;19.80;91.80
66032;DHT22;52799;45.654;13.810;2022-09-09T10:00:31;20.10;90.70
66032;DHT22;52799;45.654;13.810;2022-09-09T10:02:58;20.20;91.70
66032;DHT22;52799;45.654;13.810;2022-09-09T10:05:25;20.60;90.60
66032;DHT22;52799;45.654;13.810;2022-09-09T10:08:04;20.40;89.20
66032;DHT22;52799;45.654;13.810;2022-09-09T10:13:08;20.10;90.70
66032;DHT22;52799;45.654;13.810;2022-09-09T10:21:00;20.20;91.10
66032;DHT22;52799;45.654;13.810;2022-09-09T10:29:13;20.90;89.30
66032;DHT22;52799;45.654;13.810;2022-09-09T10:36:51;21.00;89.10
66032;DHT22;52799;45.654;13.810;2022-09-09T10:52:07;21.80;87.80
66032;DHT22;52799;45.654;13.810;2022-09-09T10:57:13;21.70;88.30
66032;DHT22;52799;45.654;13.810;2022-09-09T10:59:42;21.80;88.60
66032;DHT22;52799;45.654;13.810;2022-09-09T11:02:14;21.90;88.90
66032;DHT22;52799;45.654;13.810;2022-09-09T11:07:28;22.00;88.60
66032;DHT22;52799;45.654;13.810;2022-09-09T11:09:58;22.40;88.80
66032;DHT22;52799;45.654;13.810;2022-09-09T11:12:25;22.60;86.80
66032;DHT22;52799;45.654;13.810;2022-09-09T11:14:57;22.70;85.50
66032;DHT22;52799;45.654;13.810;2022-09-09T11:17:26;22.90;86.30
66032;DHT22;52799;45.654;13.810;2022-09-09T11:19:56;23.00;85.00
66032;DHT22;52799;45.654;13.810;2022-09-09T11:27:33;23.20;82.50
66032;DHT22;52799;45.654;13.810;2022-09-09T11:40:43;23.30;81.70
66032;DHT22;52799;45.654;13.810;2022-09-09T11:43:10;23.40;83.90
66032;DHT22;52799;45.654;13.810;2022-09-09T11:45:38;23.70;82.00
66032;DHT22;52799;45.654;13.810;2022-09-09T11:48:04;23.80;81.50
66032;DHT22;52799;45.654;13.810;2022-09-09T11:50:35;23.70;81.70
66032;DHT22;52799;45.654;13.810;2022-09-09T11:53:14;23.60;81.60
66032;DHT22;52799;45.654;13.810;2022-09-09T11:55:41;23.60;80.90
66032;DHT22;52799;45.654;13.810;2022-09-09T12:00:38;23.50;81.60
66032;DHT22;52799;45.654;13.810;2022-09-09T12:03:05;23.40;81.30
66032;DHT22;52799;45.654;13.810;2022-09-09T12:05:49;23.30;80.20
66032;DHT22;52799;45.654;13.810;2022-09-09T12:08:16;23.40;81.80
66032;DHT22;52799;45.654;13.810;2022-09-09T12:10:58;23.60;81.20
66032;DHT22;52799;45.654;13.810;2022-09-09T12:13:25;23.80;81.80
66032;DHT22;52799;45.654;13.810;2022-09-09T12:15:52;23.90;81.30
66032;DHT22;52799;45.654;13.810;2022-09-09T12:23:55;24.50;81.00
66032;DHT22;52799;45.654;13.810;2022-09-09T12:26:25;24.70;77.90
66032;DHT22;52799;45.654;13.810;2022-09-09T12:28:54;24.80;78.20
66032;DHT22;52799;45.654;13.810;2022-09-09T12:31:27;24.80;77.30
66032;DHT22;52799;45.654;13.810;2022-09-09T12:34:02;24.90;75.80
66032;DHT22;52799;45.654;13.810;2022-09-09T12:36:29;24.90;77.00
66032;DHT22;52799;45.654;13.810;2022-09-09T12:38:56;24.80;76.50
66032;DHT22;52799;45.654;13.810;2022-09-09T12:41:26;24.80;76.80
66032;DHT22;52799;45.654;13.810;2022-09-09T12:44:02;24.90;77.60
66032;DHT22;52799;45.654;13.810;2022-09-09T12:46:41;25.00;75.70
66032;DHT22;52799;45.654;13.810;2022-09-09T12:52:07;25.00;74.70
66032;DHT22;52799;45.654;13.810;2022-09-09T12:54:35;24.90;76.80
66032;DHT22;52799;45.654;13.810;2022-09-09T12:57:01;24.90;76.40
66032;DHT22;52799;45.654;13.810;2022-09-09T12:59:37;24.90;75.00
66032;DHT22;52799;45.654;13.810;2022-09-09T13:02:19;24.90;75.70
66032;DHT22;52799;45.654;13.810;2022-09-09T13:04:45;24.80;75.10
66032;DHT22;52799;45.654;13.810;2022-09-09T13:07:12;24.90;76.00
66032;DHT22;52799;45.654;13.810;2022-09-09T13:09:39;24.90;74.60
66032;DHT22;52799;45.654;13.810;2022-09-09T13:12:05;24.90;75.30
66032;DHT22;52799;45.654;13.810;2022-09-09T13:14:33;24.80;74.70
66032;DHT22;52799;45.654;13.810;2022-09-09T13:17:00;24.90;75.20
66032;DHT22;52799;45.654;13.810;2022-09-09T13:19:27;24.90;73.40
66032;DHT22;52799;45.654;13.810;2022-09-09T13:21:54;24.90;74.10
66032;DHT22;52799;45.654;13.810;2022-09-09T13:24:23;25.00;74.10
66032;DHT22;52799;45.654;13.810;2022-09-09T13:27:19;24.90;74.10
66032;DHT22;52799;45.654;13.810;2022-09-09T13:29:52;24.80;73.80
66032;DHT22;52799;45.654;13.810;2022-09-09T13:32:22;24.80;74.20
66032;DHT22;52799;45.654;13.810;2022-09-09T13:34:52;24.90;75.10
66032;DHT22;52799;45.654;13.810;2022-09-09T13:37:21;24.80;75.00
66032;DHT22;52799;45.654;13.810;2022-09-09T13:39:50;24.60;76.10
66032;DHT22;52799;45.654;13.810;2022-09-09T13:42:28;24.60;77.00
66032;DHT22;52799;45.654;13.810;2022-09-09T13:44:55;24.50;76.60
66032;DHT22;52799;45.654;13.810;2022-09-09T13:47:22;24.50;76.90
66032;DHT22;52799;45.654;13.810;2022-09-09T13:49:52;24.50;77.20
66032;DHT22;52799;45.654;13.810;2022-09-09T13:52:18;24.70;77.30
66032;DHT22;52799;45.654;13.810;2022-09-09T13:54:50;24.80;77.50
66032;DHT22;52799;45.654;13.810;2022-09-09T13:57:22;24.90;76.70
66032;DHT22;52799;45.654;13.810;2022-09-09T13:59:49;24.80;75.90
66032;DHT22;52799;45.654;13.810;2022-09-09T14:02:15;24.80;75.40
66032;DHT22;52799;45.654;13.810;2022-09-09T14:04:42;24.70;76.10
66032;DHT22;52799;45.654;13.810;2022-09-09T14:07:17;24.60;76.60
66032;DHT22;52799;45.654;13.810;2022-09-09T14:09:43;24.70;77.00
66032;DHT22;52799;45.654;13.810;2022-09-09T14:12:12;24.70;76.60
66032;DHT22;52799;45.654;13.810;2022-09-09T14:14:39;24.80;76.40
66032;DHT22;52799;45.654;13.810;2022-09-09T14:17:04;24.80;76.60
66032;DHT22;52799;45.654;13.810;2022-09-09T14:19:30;24.90;75.90
66032;DHT22;52799;45.654;13.810;2022-09-09T14:21:59;24.90;76.60
66032;DHT22;52799;45.654;13.810;2022-09-09T14:24:24;25.00;76.50
66032;DHT22;52799;45.654;13.810;2022-09-09T14:26:50;25.00;73.30
66032;DHT22;52799;45.654;13.810;2022-09-09T14:29:16;25.10;74.40
66032;DHT22;52799;45.654;13.810;2022-09-09T14:31:41;25.10;74.80
66032;DHT22;52799;45.654;13.810;2022-09-09T14:34:07;25.10;74.80
66032;DHT22;52799;45.654;13.810;2022-09-09T14:36:33;25.10;75.00
66032;DHT22;52799;45.654;13.810;2022-09-09T14:38:58;25.10;75.40
66032;DHT22;52799;45.654;13.810;2022-09-09T14:41:24;25.20;76.10
66032;DHT22;52799;45.654;13.810;2022-09-09T14:43:50;25.30;76.10
66032;DHT22;52799;45.654;13.810;2022-09-09T14:46:17;25.40;74.20
66032;DHT22;52799;45.654;13.810;2022-09-09T14:48:43;25.40;74.60
66032;DHT22;52799;45.654;13.810;2022-09-09T14:51:14;25.60;74.10
66032;DHT22;52799;45.654;13.810;2022-09-09T14:53:41;25.60;73.40
66032;DHT22;52799;45.654;13.810;2022-09-09T14:56:10;25.70;72.80
66032;DHT22;52799;45.654;13.810;2022-09-09T14:58:36;25.70;72.60
66032;DHT22;52799;45.654;13.810;2022-09-09T15:01:05;25.80;72.60
66032;DHT22;52799;45.654;13.810;2022-09-09T15:03:31;25.90;72.30
66032;DHT22;52799;45.654;13.810;2022-09-09T15:05:57;25.90;72.10
66032;DHT22;52799;45.654;13.810;2022-09-09T15:08:24;26.00;71.00
66032;DHT22;52799;45.654;13.810;2022-09-09T15:10:49;26.00;70.30
66032;DHT22;52799;45.654;13.810;2022-09-09T15:13:15;26.00;69.00
66032;DHT22;52799;45.654;13.810;2022-09-09T15:15:44;26.00;69.50
66032;DHT22;52799;45.654;13.810;2022-09-09T15:18:09;26.00;69.60
66032;DHT22;52799;45.654;13.810;2022-09-09T15:20:35;26.20;69.80
66032;DHT22;52799;45.654;13.810;2022-09-09T15:23:02;26.20;68.70
66032;DHT22;52799;45.654;13.810;2022-09-09T15:25:28;26.20;69.50
66032;DHT22;52799;45.654;13.810;2022-09-09T15:27:54;26.20;67.40
66032;DHT22;52799;45.654;13.810;2022-09-09T15:30:21;26.20;67.50
66032;DHT22;52799;45.654;13.810;2022-09-09T15:32:47;26.20;67.80
66032;DHT22;52799;45.654;13.810;2022-09-09T15:35:12;26.10;68.80
66032;DHT22;52799;45.654;13.810;2022-09-09T15:37:38;26.00;70.00
66032;DHT22;52799;45.654;13.810;2022-09-09T15:40:03;25.90;70.10
66032;DHT22;52799;45.654;13.810;2022-09-09T15:42:29;25.80;70.10
66032;DHT22;52799;45.654;13.810;2022-09-09T15:44:55;25.60;70.60
66032;DHT22;52799;45.654;13.810;2022-09-09T15:47:20;25.30;72.20
66032;DHT22;52799;45.654;13.810;2022-09-09T15:49:46;25.30;72.80
66032;DHT22;52799;45.654;13.810;2022-09-09T15:52:12;25.40;72.60
66032;DHT22;52799;45.654;13.810;2022-09-09T15:54:38;25.20;72.10
66032;DHT22;52799;45.654;13.810;2022-09-09T15:57:05;24.70;72.30
66032;DHT22;52799;45.654;13.810;2022-09-09T15:59:31;24.50;73.70
66032;DHT22;52799;45.654;13.810;2022-09-09T16:01:57;24.00;71.00
66032;DHT22;52799;45.654;13.810;2022-09-09T16:04:25;23.60;70.60
66032;DHT22;52799;45.654;13.810;2022-09-09T16:07:01;23.50;71.20
66032;DHT22;52799;45.654;13.810;2022-09-09T16:09:28;23.60;68.90
66032;DHT22;52799;45.654;13.810;2022-09-09T16:11:57;23.80;69.00
66032;DHT22;52799;45.654;13.810;2022-09-09T16:14:23;23.80;69.10
66032;DHT22;52799;45.654;13.810;2022-09-09T16:16:50;24.00;70.20
66032;DHT22;52799;45.654;13.810;2022-09-09T16:19:16;24.20;70.00
66032;DHT22;52799;45.654;13.810;2022-09-09T16:21:45;24.30;70.10
66032;DHT22;52799;45.654;13.810;2022-09-09T16:24:11;24.10;67.40
66032;DHT22;52799;45.654;13.810;2022-09-09T16:26:38;23.90;68.90
66032;DHT22;52799;45.654;13.810;2022-09-09T16:29:04;23.80;67.30
66032;DHT22;52799;45.654;13.810;2022-09-09T16:31:30;23.80;65.40
66032;DHT22;52799;45.654;13.810;2022-09-09T16:33:57;23.90;65.70
66032;DHT22;52799;45.654;13.810;2022-09-09T16:36:27;23.90;64.60
66032;DHT22;52799;45.654;13.810;2022-09-09T16:38:53;24.00;65.30
66032;DHT22;52799;45.654;13.810;2022-09-09T16:41:20;24.00;65.30
66032;DHT22;52799;45.654;13.810;2022-09-09T16:43:46;23.80;64.00
66032;DHT22;52799;45.654;13.810;2022-09-09T16:46:13;23.80;63.40
66032;DHT22;52799;45.654;13.810;2022-09-09T16:48:40;24.00;64.80
66032;DHT22;52799;45.654;13.810;2022-09-09T16:51:07;23.80;65.80
66032;DHT22;52799;45.654;13.810;2022-09-09T16:53:33;23.80;67.00
66032;DHT22;52799;45.654;13.810;2022-09-09T16:56:04;23.60;67.40
66032;DHT22;52799;45.654;13.810;2022-09-09T16:58:31;23.40;69.50
66032;DHT22;52799;45.654;13.810;2022-09-09T17:01:00;23.50;70.10
66032;DHT22;52799;45.654;13.810;2022-09-09T17:03:27;23.60;71.00
66032;DHT22;52799;45.654;13.810;2022-09-09T17:05:52;23.60;71.60
66032;DHT22;52799;45.654;13.810;2022-09-09T17:08:18;23.60;74.30
66032;DHT22;52799;45.654;13.810;2022-09-09T17:10:43;23.60;76.50
66032;DHT22;52799;45.654;13.810;2022-09-09T17:13:09;23.30;78.10
66032;DHT22;52799;45.654;13.810;2022-09-09T17:15:41;23.30;80.70